Airfield :
LOGIN :

Register | Disclaimer

   EN    FR    IT 

 










Legend :    VFR   Marginal VFR   IFR   Intensive IFR   Very Intensive IFR
Visi :
Ceiling :
>= 8 km
>= 3000ft
5 to 8 km
1000 to 3000 ft
1500m to 5 km
500 to 1000 ft
800 to 1500m
200 to 500 ft
< 800m
< 200 ft
Symbols :   Thunderstorms  Fog  Heavy snow  Heavy precipitations  Wind > 20 kt
SIGMETs :     Misc.  Thunderstorms  Icing  Turbulence  Mountain Waves  Volcanic Ashes






- Airport Elevation : 55 ft
- IATA code : DSA


EGCN - Robin Hood Doncaster Sheffield

CURRENT METAR :
  • 180250Z AUTO 31005KT 9999 NCD 14/11 Q1017

EXPIRED METARs :
  • 180220Z AUTO 34004KT 9999 OVC049/// 14/11 Q1017
  • 180150Z AUTO 34004KT 9999 OVC046/// 14/11 Q1017
  • 180120Z AUTO 31006KT 9999 OVC045/// 15/12 Q1017
  • 180050Z AUTO 29004KT 240V360 9999 OVC043/// 15/13 Q1017
  • 180020Z AUTO 20001KT 9999 BKN042/// 15/14 Q1017

TAF TAF EGCN
Valid from the 18 at 00:00 until the 19 at 00:00 UTC


172254Z 1800/1824 VRB04KT 9999 SCT030
PROB30
TEMPO 1800/1804 7000 RA BKN014
BECMG 1807/1810 03010KT
TEMPO 1811/1823 7000 RA
PROB30
TEMPO 1811/1823 4000 +RA BKN012



MET'MAP, your aeronautical weather chart ! - Copyright ORBIFLY December 2007 - Disclaimer

ORBIFLY MET'MAP TEAM :

Programming & Development : Alexandra Zaïnal
Concept & original design : Baudouin d'Aumeries
Assistance for programming : Marc-Olivier Méhu
Technical & hardware support : Manuel Goepfert

Contact : metmap@orbifly.com




SOURCES & CREDITS :

   NOAA